createdAt,value
2019-02-08T00:00:50.987Z,19.40
2019-02-08T00:03:18.831Z,19.40
2019-02-08T00:05:46.695Z,19.40
2019-02-08T00:08:14.607Z,19.40
2019-02-08T00:10:42.474Z,19.40
2019-02-08T00:13:10.316Z,19.30
2019-02-08T00:15:38.258Z,19.30
2019-02-08T00:18:06.116Z,19.30
2019-02-08T00:20:34.370Z,19.30
2019-02-08T00:23:02.308Z,19.30
2019-02-08T00:25:30.173Z,19.30
2019-02-08T00:27:58.847Z,19.30
2019-02-08T00:30:27.397Z,19.20
2019-02-08T00:32:55.301Z,19.20
2019-02-08T00:35:23.179Z,19.20
2019-02-08T00:37:51.163Z,19.20
2019-02-08T00:40:19.386Z,19.20
2019-02-08T00:42:47.223Z,19.20
2019-02-08T00:45:15.706Z,19.20
2019-02-08T00:47:43.583Z,19.20
2019-02-08T00:50:12.900Z,19.20
2019-02-08T00:52:40.735Z,19.10
2019-02-08T00:55:08.852Z,19.10
2019-02-08T00:57:37.032Z,19.10
2019-02-08T01:00:06.596Z,19.10
2019-02-08T01:02:34.815Z,19.10
2019-02-08T01:05:02.999Z,19.00
2019-02-08T01:07:30.846Z,19.00
2019-02-08T01:09:58.682Z,19.00
2019-02-08T01:12:26.523Z,19.00
2019-02-08T01:14:54.369Z,19.00
2019-02-08T01:17:22.206Z,19.00
2019-02-08T01:19:50.047Z,19.00
2019-02-08T01:22:17.902Z,19.00
2019-02-08T01:24:45.804Z,19.00
2019-02-08T01:27:13.651Z,18.90
2019-02-08T01:29:41.491Z,18.90
2019-02-08T01:32:09.339Z,18.90
2019-02-08T01:34:37.185Z,18.90
2019-02-08T01:37:05.030Z,18.90
2019-02-08T01:39:32.872Z,18.90
2019-02-08T01:42:00.710Z,18.90
2019-02-08T01:44:28.563Z,18.90
2019-02-08T01:46:56.484Z,18.90
2019-02-08T01:49:24.327Z,18.90
2019-02-08T01:51:52.166Z,18.80
2019-02-08T01:54:20.096Z,18.80
2019-02-08T01:56:47.938Z,18.80
2019-02-08T01:59:15.778Z,18.80
2019-02-08T02:01:43.698Z,18.80
2019-02-08T02:04:11.543Z,18.80
2019-02-08T02:06:39.467Z,18.80
2019-02-08T02:09:07.555Z,18.80
2019-02-08T02:11:35.408Z,18.70
2019-02-08T02:14:03.244Z,18.70
2019-02-08T02:16:31.079Z,18.70
2019-02-08T02:18:58.923Z,18.70
2019-02-08T02:21:26.767Z,18.70
2019-02-08T02:23:56.126Z,18.70
2019-02-08T02:26:24.361Z,18.70
2019-02-08T02:28:52.279Z,18.70
2019-02-08T02:31:20.133Z,18.70
2019-02-08T02:33:48.339Z,18.70
2019-02-08T02:36:16.188Z,18.70
2019-02-08T02:38:44.372Z,18.60
2019-02-08T02:41:12.210Z,18.60
2019-02-08T02:43:40.051Z,18.60
2019-02-08T02:46:07.968Z,18.60
2019-02-08T02:48:35.819Z,18.60
2019-02-08T02:51:03.695Z,18.60
2019-02-08T02:53:31.543Z,18.60
2019-02-08T02:55:59.387Z,18.60
2019-02-08T02:58:27.320Z,18.50
2019-02-08T03:00:55.559Z,18.50
2019-02-08T03:03:23.471Z,18.50
2019-02-08T03:05:51.428Z,18.50
2019-02-08T03:08:19.262Z,18.50
2019-02-08T03:10:47.132Z,18.50
2019-02-08T03:13:14.980Z,18.50
2019-02-08T03:15:42.859Z,18.40
2019-02-08T03:18:10.774Z,18.40
2019-02-08T03:20:38.623Z,18.40
2019-02-08T03:23:06.467Z,18.40
2019-02-08T03:25:34.648Z,18.40
2019-02-08T03:28:02.569Z,18.40
2019-02-08T03:30:34.466Z,18.40
2019-02-08T03:33:02.397Z,18.40
2019-02-08T03:35:30.312Z,18.40
2019-02-08T03:37:58.158Z,18.30
2019-02-08T03:40:26.877Z,18.30
2019-02-08T03:42:55.171Z,18.30
2019-02-08T03:45:23.520Z,18.30
2019-02-08T03:47:51.376Z,18.30
2019-02-08T03:50:19.800Z,18.30
2019-02-08T03:52:47.770Z,18.30
2019-02-08T03:55:16.451Z,18.30
2019-02-08T03:57:44.370Z,18.30
2019-02-08T04:00:16.762Z,18.30
2019-02-08T04:02:44.678Z,18.30
2019-02-08T04:05:12.522Z,18.30
2019-02-08T04:07:40.363Z,18.20
2019-02-08T04:10:09.279Z,18.20
2019-02-08T04:12:37.119Z,18.20
2019-02-08T04:15:05.615Z,18.20
2019-02-08T04:17:33.456Z,18.20
2019-02-08T04:20:01.320Z,18.20
2019-02-08T04:22:29.223Z,18.20
2019-02-08T04:24:57.358Z,18.20
2019-02-08T04:27:25.213Z,18.20
2019-02-08T04:29:53.055Z,18.20
2019-02-08T04:32:21.251Z,18.20
2019-02-08T04:34:49.100Z,18.20
2019-02-08T04:37:16.957Z,18.20
2019-02-08T04:39:45.051Z,18.10
2019-02-08T04:42:12.919Z,18.10
2019-02-08T04:44:40.786Z,18.10
2019-02-08T04:47:08.716Z,18.10
2019-02-08T04:49:37.112Z,18.10
2019-02-08T04:52:04.984Z,18.10
2019-02-08T04:54:38.255Z,18.10
2019-02-08T04:57:02.423Z,18.10
2019-02-08T04:59:30.345Z,18.10
2019-02-08T05:01:58.300Z,18.10
2019-02-08T05:04:26.143Z,18.10
2019-02-08T05:06:54.097Z,18.10
2019-02-08T05:09:22.031Z,18.10
2019-02-08T05:11:49.896Z,18.10
2019-02-08T05:14:17.810Z,18.00
2019-02-08T05:16:45.674Z,18.00
2019-02-08T05:19:13.517Z,18.00
2019-02-08T05:21:41.643Z,18.00
2019-02-08T05:24:09.494Z,18.10
2019-02-08T05:26:37.337Z,18.00
2019-02-08T05:29:05.174Z,18.00
2019-02-08T05:31:33.015Z,18.00
2019-02-08T05:34:00.859Z,18.00
2019-02-08T05:36:28.718Z,18.00
2019-02-08T05:38:56.563Z,18.00
2019-02-08T05:41:24.433Z,18.00
2019-02-08T05:43:52.350Z,18.00
2019-02-08T05:46:20.190Z,18.00
2019-02-08T05:48:48.044Z,18.10
2019-02-08T05:51:15.887Z,18.10
2019-02-08T05:53:43.731Z,18.10
2019-02-08T05:56:11.573Z,18.10
2019-02-08T05:58:39.419Z,18.10
2019-02-08T06:01:07.325Z,18.10
2019-02-08T06:03:35.491Z,18.20
2019-02-08T06:06:03.643Z,18.20
2019-02-08T06:08:31.510Z,18.20
2019-02-08T06:10:59.359Z,18.30
2019-02-08T06:13:27.285Z,18.30
2019-02-08T06:15:55.135Z,18.30
2019-02-08T06:18:23.051Z,18.40
2019-02-08T06:20:50.904Z,18.40
2019-02-08T06:23:18.763Z,18.50
2019-02-08T06:25:46.605Z,18.50
2019-02-08T06:28:14.474Z,18.50
2019-02-08T06:30:42.317Z,18.60
2019-02-08T06:33:10.274Z,18.60
2019-02-08T06:35:38.131Z,18.70
2019-02-08T06:38:06.598Z,18.70
2019-02-08T06:40:34.860Z,18.70
2019-02-08T06:43:02.723Z,18.70
2019-02-08T06:45:30.605Z,18.80
2019-02-08T06:47:58.928Z,18.80
2019-02-08T06:50:26.778Z,18.90
2019-02-08T06:52:54.626Z,18.90
2019-02-08T06:55:22.811Z,18.90
2019-02-08T06:58:18.932Z,18.90
2019-02-08T07:01:15.592Z,18.90
2019-02-08T07:04:05.661Z,18.90
2019-02-08T07:07:05.040Z,19.00
2019-02-08T07:09:52.012Z,19.00
2019-02-08T07:12:42.074Z,19.00
2019-02-08T07:15:35.158Z,19.10
2019-02-08T07:18:24.902Z,19.20
2019-02-08T07:21:21.670Z,19.40
2019-02-08T07:24:01.118Z,19.50
2019-02-08T07:26:40.058Z,19.60
2019-02-08T07:29:20.418Z,19.60
2019-02-08T07:32:01.487Z,19.60
2019-02-08T07:34:47.396Z,19.60
2019-02-08T07:37:29.675Z,19.70
2019-02-08T07:40:20.983Z,19.70
2019-02-08T07:43:08.959Z,19.80
2019-02-08T07:45:59.880Z,19.80
2019-02-08T07:48:55.842Z,19.80
2019-02-08T07:51:42.830Z,19.80
2019-02-08T07:54:19.122Z,19.90
2019-02-08T07:57:13.222Z,19.90
2019-02-08T08:00:06.246Z,19.90
2019-02-08T08:02:53.210Z,19.90
2019-02-08T08:05:30.574Z,19.90
2019-02-08T08:08:06.619Z,19.90
2019-02-08T08:10:46.064Z,20.00
2019-02-08T08:13:35.431Z,19.90
2019-02-08T08:16:25.536Z,19.90
2019-02-08T08:19:08.544Z,19.90
2019-02-08T08:21:54.455Z,19.90
2019-02-08T08:24:48.161Z,19.90
2019-02-08T08:27:29.211Z,19.90
2019-02-08T08:30:08.114Z,19.90
2019-02-08T08:32:43.647Z,19.90
2019-02-08T08:35:24.358Z,19.90
2019-02-08T08:38:23.876Z,20.00
2019-02-08T08:41:14.115Z,20.00
2019-02-08T08:44:04.074Z,20.00
2019-02-08T08:47:06.702Z,20.00
2019-02-08T08:49:57.079Z,20.00
2019-02-08T08:52:29.199Z,20.00
2019-02-08T08:55:06.568Z,20.00
2019-02-08T08:57:48.667Z,20.00
2019-02-08T09:00:34.786Z,19.80
2019-02-08T09:03:16.266Z,19.70
2019-02-08T09:06:08.577Z,19.70
2019-02-08T09:08:50.907Z,19.80
2019-02-08T09:11:25.607Z,19.80
2019-02-08T09:14:11.463Z,19.90
2019-02-08T09:17:17.134Z,19.90
2019-02-08T09:19:51.471Z,19.90
2019-02-08T09:22:37.455Z,20.00
2019-02-08T09:25:14.443Z,20.00
2019-02-08T09:28:07.656Z,20.10
2019-02-08T09:30:47.546Z,20.10
2019-02-08T09:33:23.476Z,20.10
2019-02-08T09:36:09.187Z,20.10
2019-02-08T09:39:01.596Z,20.10
2019-02-08T09:41:47.666Z,20.10
2019-02-08T09:44:37.990Z,20.10
2019-02-08T09:47:24.147Z,20.10
2019-02-08T09:50:10.172Z,20.10
2019-02-08T09:52:51.324Z,20.10
2019-02-08T09:55:57.499Z,20.10
2019-02-08T09:58:38.242Z,20.10
2019-02-08T10:01:27.579Z,20.10
2019-02-08T10:04:17.878Z,20.10
2019-02-08T10:07:08.044Z,20.10
2019-02-08T10:09:50.719Z,20.10
2019-02-08T10:12:36.826Z,20.10
2019-02-08T10:15:22.860Z,20.00
2019-02-08T10:18:10.007Z,20.00
2019-02-08T10:20:54.544Z,20.00
2019-02-08T10:23:41.700Z,20.00
2019-02-08T10:26:19.423Z,20.00
2019-02-08T10:29:05.383Z,20.00
2019-02-08T10:32:02.053Z,20.00
2019-02-08T10:34:48.011Z,20.00
2019-02-08T10:37:41.189Z,20.00
2019-02-08T10:40:25.490Z,19.90
2019-02-08T10:43:15.489Z,19.90
2019-02-08T10:46:18.016Z,20.00
2019-02-08T10:49:03.798Z,19.90
2019-02-08T10:51:37.743Z,20.00
2019-02-08T10:54:36.802Z,19.90
2019-02-08T10:57:24.470Z,19.90
2019-02-08T11:00:10.392Z,19.90
2019-02-08T11:02:57.511Z,19.90
2019-02-08T11:05:46.547Z,19.90
2019-02-08T11:08:42.831Z,19.90
2019-02-08T11:11:28.534Z,19.90
2019-02-08T11:14:11.820Z,19.90
2019-02-08T11:16:47.690Z,19.90
2019-02-08T11:19:18.852Z,19.90
2019-02-08T11:21:47.263Z,19.90
2019-02-08T11:24:15.891Z,19.90
2019-02-08T11:26:43.911Z,20.00
2019-02-08T11:29:11.795Z,19.90
2019-02-08T11:31:39.632Z,19.90
2019-02-08T11:34:07.492Z,19.90
2019-02-08T11:36:35.632Z,19.90
2019-02-08T11:39:05.468Z,19.90
2019-02-08T11:41:33.330Z,19.90
2019-02-08T11:44:01.231Z,19.90
2019-02-08T11:46:29.104Z,19.90
2019-02-08T11:48:56.983Z,19.90
2019-02-08T11:51:24.824Z,19.90
2019-02-08T11:53:52.671Z,20.00
2019-02-08T11:56:20.519Z,20.00
2019-02-08T11:58:48.366Z,19.90
2019-02-08T12:01:16.288Z,19.90
2019-02-08T12:03:44.130Z,19.90
2019-02-08T12:06:11.974Z,19.90
2019-02-08T12:08:39.819Z,19.90
2019-02-08T12:11:07.669Z,19.90
2019-02-08T12:13:35.510Z,19.90
2019-02-08T12:16:03.348Z,19.90
2019-02-08T12:18:31.238Z,20.00
2019-02-08T12:20:59.092Z,20.00
2019-02-08T12:23:26.938Z,20.00
2019-02-08T12:25:54.791Z,20.10
2019-02-08T12:28:22.642Z,20.10
2019-02-08T12:30:50.488Z,20.10
2019-02-08T12:33:18.336Z,20.10
2019-02-08T12:35:46.468Z,20.10
2019-02-08T12:38:14.307Z,20.10
2019-02-08T12:40:42.165Z,20.10
2019-02-08T12:43:10.342Z,20.10
2019-02-08T12:45:38.231Z,20.20
2019-02-08T12:48:06.423Z,20.20
2019-02-08T12:50:34.280Z,20.10
2019-02-08T12:53:02.495Z,20.10
2019-02-08T12:55:30.388Z,20.10
2019-02-08T12:57:58.235Z,20.10
2019-02-08T13:00:26.092Z,20.10
2019-02-08T13:02:54.227Z,20.10
2019-02-08T13:05:22.141Z,20.10
2019-02-08T13:07:49.976Z,20.10
2019-02-08T13:10:19.216Z,20.10
2019-02-08T13:12:47.740Z,20.10
2019-02-08T13:15:15.587Z,20.10
2019-02-08T13:17:44.862Z,20.10
2019-02-08T13:20:13.963Z,20.10
2019-02-08T13:22:41.807Z,20.10
2019-02-08T13:25:09.900Z,20.00
2019-02-08T13:27:37.734Z,20.00
2019-02-08T13:30:07.307Z,20.00
2019-02-08T13:32:35.156Z,20.00
2019-02-08T13:35:03.003Z,20.00
2019-02-08T13:37:30.839Z,20.00
2019-02-08T13:39:58.682Z,20.00
2019-02-08T13:42:26.531Z,20.00
2019-02-08T13:44:54.380Z,20.00
2019-02-08T13:47:22.219Z,20.00
2019-02-08T13:49:50.067Z,20.00
2019-02-08T13:52:17.959Z,20.00
2019-02-08T13:54:46.176Z,19.90
2019-02-08T13:57:14.380Z,19.90
2019-02-08T13:59:42.272Z,19.90
2019-02-08T14:02:10.130Z,19.90
2019-02-08T14:04:38.015Z,20.00
2019-02-08T14:07:06.098Z,20.00
2019-02-08T14:09:33.990Z,20.00
2019-02-08T14:12:01.894Z,20.00
2019-02-08T14:14:30.396Z,20.00
2019-02-08T14:16:58.242Z,20.00
2019-02-08T14:19:26.087Z,20.00
2019-02-08T14:21:53.930Z,20.00
2019-02-08T14:24:21.779Z,20.00
2019-02-08T14:26:49.980Z,20.00
2019-02-08T14:29:17.836Z,20.00
2019-02-08T14:31:45.675Z,20.00
2019-02-08T14:34:13.532Z,20.00
2019-02-08T14:36:41.377Z,20.00
2019-02-08T14:39:10.182Z,20.00
2019-02-08T14:41:38.224Z,20.00
2019-02-08T14:44:06.150Z,19.90
2019-02-08T14:46:33.994Z,19.90
2019-02-08T14:49:01.843Z,19.90
2019-02-08T14:51:29.688Z,19.90
2019-02-08T14:53:57.539Z,19.90
2019-02-08T14:56:25.384Z,19.90
2019-02-08T14:58:53.224Z,19.80
2019-02-08T15:01:21.077Z,19.80
2019-02-08T15:03:48.939Z,19.90
2019-02-08T15:06:17.167Z,19.90
2019-02-08T15:08:45.402Z,19.90
2019-02-08T15:11:13.391Z,20.00
2019-02-08T15:13:41.228Z,20.00
2019-02-08T15:16:09.363Z,20.00
2019-02-08T15:18:37.212Z,20.00
2019-02-08T15:21:05.057Z,20.00
2019-02-08T15:23:33.248Z,20.10
2019-02-08T15:26:01.427Z,20.10
2019-02-08T15:28:29.399Z,20.10
2019-02-08T15:30:57.239Z,20.10
2019-02-08T15:33:25.144Z,20.10
2019-02-08T15:35:52.992Z,20.10
2019-02-08T15:38:20.888Z,20.10
2019-02-08T15:40:50.123Z,20.10
2019-02-08T15:43:19.152Z,20.10
2019-02-08T15:45:51.778Z,20.10
2019-02-08T15:48:19.753Z,20.20
2019-02-08T15:50:48.391Z,20.20
2019-02-08T15:53:16.656Z,20.10
2019-02-08T15:55:45.780Z,20.10
2019-02-08T15:58:14.055Z,20.10
2019-02-08T16:00:42.054Z,20.10
2019-02-08T16:03:10.486Z,20.10
2019-02-08T16:05:38.648Z,20.10
2019-02-08T16:08:06.523Z,20.10
2019-02-08T16:10:34.371Z,20.10
2019-02-08T16:13:02.599Z,20.10
